Time;durP1;ratioP1;P1;durP2;ratioP2;P2;SDS_P1;SDS_P2;PMS_P1;PMS_P2;Temp;Humidity;BMP_temperature;BMP_pressure;BME280_temperature;BME280_humidity;BME280_pressure;Samples;Min_cycle;Max_cycle;Signal;HPM_P1;HPM_P2
2022/07/15 00:01:06;;;;;;;0.30;0.30;;;;;;;20.16;44.56;101589.72;5165580;28;20026;-86
2022/07/15 00:03:36;;;;;;;0.40;0.40;;;;;;;20.09;44.37;101589.16;5177631;28;20049;-86
2022/07/15 00:06:07;;;;;;;0.30;0.30;;;;;;;20.07;44.07;101591.06;5174374;28;20041;-86
2022/07/15 00:08:38;;;;;;;0.47;0.47;;;;;;;20.05;43.92;101589.41;5176656;28;20038;-86
2022/07/15 00:11:09;;;;;;;0.63;0.63;;;;;;;20.01;44.55;101586.06;5194431;28;20038;-86
2022/07/15 00:13:39;;;;;;;0.60;0.60;;;;;;;20.00;44.80;101586.16;5168639;28;20014;-86
2022/07/15 00:16:10;;;;;;;0.20;0.20;;;;;;;20.04;45.20;101590.34;5173831;28;20034;-86
2022/07/15 00:18:41;;;;;;;0.50;0.50;;;;;;;19.92;44.44;101589.19;5172600;28;20499;-86
2022/07/15 00:21:11;;;;;;;0.25;0.25;;;;;;;19.92;44.30;101583.88;5176701;28;20032;-85
2022/07/15 00:23:42;;;;;;;0.20;0.20;;;;;;;19.85;44.58;101590.47;5166988;28;20034;-85
2022/07/15 00:26:12;;;;;;;0.60;0.60;;;;;;;19.86;44.81;101589.53;5182898;28;20132;-86
2022/07/15 00:28:43;;;;;;;0.22;0.22;;;;;;;19.82;44.36;101587.00;5194274;28;20037;-86
2022/07/15 00:31:13;;;;;;;0.20;0.20;;;;;;;19.77;44.41;101586.38;5174031;28;20081;-85
2022/07/15 00:33:44;;;;;;;0.50;0.50;;;;;;;19.75;44.76;101584.75;5173714;28;20139;-86
2022/07/15 00:36:15;;;;;;;0.40;0.40;;;;;;;19.72;44.90;101585.75;5175106;28;20037;-86
2022/07/15 00:38:45;;;;;;;0.30;0.30;;;;;;;19.69;44.71;101593.91;5180178;28;20078;-86
2022/07/15 00:41:16;;;;;;;0.25;0.25;;;;;;;19.69;45.50;101591.25;5174998;28;20398;-86
2022/07/15 00:43:46;;;;;;;1.20;0.57;;;;;;;19.65;45.05;101593.22;5176925;28;20021;-86
2022/07/15 00:46:18;;;;;;;0.50;0.50;;;;;;;19.64;44.82;101596.81;5165126;28;20126;-86
2022/07/15 00:48:49;;;;;;;1.55;0.75;;;;;;;19.65;45.54;101592.31;5200047;28;20525;-86
2022/07/15 00:51:20;;;;;;;0.22;0.22;;;;;;;19.62;45.33;101588.03;5179143;28;20069;-85
2022/07/15 00:53:54;;;;;;;0.20;0.20;;;;;;;19.60;45.51;101589.06;5183960;28;20494;-85
2022/07/15 00:56:28;;;;;;;0.40;0.40;;;;;;;19.61;45.60;101585.44;5191622;28;20042;-85
2022/07/15 00:59:00;;;;;;;0.20;0.20;;;;;;;19.59;46.54;101587.31;5204033;28;20026;-86
2022/07/15 01:01:32;;;;;;;0.20;0.20;;;;;;;19.59;47.62;101590.00;5164731;28;20034;-86
2022/07/15 01:04:04;;;;;;;0.80;0.40;;;;;;;19.54;47.16;101595.53;5184222;28;20033;-86
2022/07/15 01:06:35;;;;;;;0.40;0.40;;;;;;;19.52;46.68;101593.91;5176845;28;20038;-86
2022/07/15 01:09:05;;;;;;;2.17;0.95;;;;;;;19.47;46.22;101589.66;5167087;28;20052;-86
2022/07/15 01:11:36;;;;;;;1.45;0.77;;;;;;;19.47;46.26;101594.13;5176508;28;20395;-86
2022/07/15 01:14:08;;;;;;;0.40;0.40;;;;;;;19.44;46.32;101596.94;5166672;28;20499;-85
2022/07/15 01:16:41;;;;;;;0.30;0.30;;;;;;;19.41;46.44;101600.63;5199299;28;20036;-86
2022/07/15 01:19:11;;;;;;;2.50;1.63;;;;;;;19.42;46.59;101596.19;5168252;28;20102;-86
2022/07/15 01:21:44;;;;;;;3.47;1.33;;;;;;;19.38;46.76;101590.13;5197201;28;20128;-86
2022/07/15 01:24:14;;;;;;;1.08;1.08;;;;;;;19.40;46.90;101596.25;5191983;28;20033;-86
2022/07/15 01:26:48;;;;;;;0.98;0.68;;;;;;;19.42;47.01;101601.50;5166528;28;20064;-86
2022/07/15 01:29:21;;;;;;;1.55;0.82;;;;;;;19.43;47.32;101598.75;5168483;28;20047;-86
2022/07/15 01:31:52;;;;;;;0.63;0.60;;;;;;;19.39;46.92;101602.50;5165419;28;20038;-86
2022/07/15 01:34:22;;;;;;;0.38;0.38;;;;;;;19.40;47.47;101593.56;5164905;28;20033;-86
2022/07/15 01:36:53;;;;;;;0.40;0.40;;;;;;;19.39;47.46;101605.16;5184089;28;20032;-86
2022/07/15 01:39:24;;;;;;;0.20;0.20;;;;;;;19.38;47.29;101608.75;5178628;28;20054;-86
2022/07/15 01:41:57;;;;;;;0.20;0.20;;;;;;;19.34;47.32;101607.19;5177097;28;20033;-86
2022/07/15 01:44:28;;;;;;;1.30;1.20;;;;;;;19.31;48.43;101604.69;5189801;28;20038;-86
2022/07/15 01:46:58;;;;;;;0.22;0.22;;;;;;;19.30;48.09;101602.94;5190720;28;20506;-87
2022/07/15 01:49:31;;;;;;;0.35;0.35;;;;;;;19.23;49.19;101607.75;5178020;28;20033;-86
2022/07/15 01:52:02;;;;;;;;;;;;;;;19.27;49.49;101603.13;5165677;28;20112;-86
2022/07/15 01:54:33;;;;;;;0.85;0.57;;;;;;;19.23;48.02;101601.53;5176413;28;20348;-86
2022/07/15 01:57:04;;;;;;;0.30;0.30;;;;;;;19.17;47.79;101603.56;5164098;28;20041;-86
2022/07/15 01:59:34;;;;;;;0.98;0.85;;;;;;;19.12;47.70;101600.28;5177250;28;20029;-86
2022/07/15 02:02:04;;;;;;;0.40;0.40;;;;;;;19.17;48.03;101608.06;5183194;28;20041;-86
2022/07/15 02:04:37;;;;;;;0.40;0.40;;;;;;;19.14;47.24;101608.19;5163568;28;20035;-86
2022/07/15 02:07:08;;;;;;;0.30;0.30;;;;;;;19.09;48.09;101605.75;5160898;28;20026;-87
2022/07/15 02:09:38;;;;;;;0.43;0.43;;;;;;;19.08;47.83;101609.34;5194419;28;20044;-87
2022/07/15 02:12:09;;;;;;;0.30;0.30;;;;;;;19.07;47.96;101607.63;5189191;28;20037;-86
2022/07/15 02:14:40;;;;;;;1.70;1.60;;;;;;;19.09;47.84;101599.59;5156985;28;20029;-86
2022/07/15 02:17:10;;;;;;;0.55;0.30;;;;;;;19.07;47.70;101601.47;5176260;28;20076;-86
2022/07/15 02:19:41;;;;;;;1.20;0.85;;;;;;;19.04;47.84;101599.81;5183959;28;20030;-86
2022/07/15 02:22:11;;;;;;;0.38;0.38;;;;;;;19.03;47.91;101598.09;5190509;28;20033;-86
2022/07/15 02:24:42;;;;;;;0.20;0.20;;;;;;;19.08;49.18;101604.03;5180388;28;20033;-86
2022/07/15 02:27:12;;;;;;;0.75;0.75;;;;;;;18.99;49.39;101602.69;5169529;28;20057;-86
2022/07/15 02:29:43;;;;;;;0.50;0.50;;;;;;;19.03;48.68;101601.59;5195311;28;20080;-86
2022/07/15 02:32:13;;;;;;;0.20;0.20;;;;;;;19.03;48.97;101604.25;5194397;28;20037;-86
2022/07/15 02:34:44;;;;;;;0.50;0.50;;;;;;;18.99;49.45;101604.47;5180688;28;20029;-86
2022/07/15 02:37:14;;;;;;;0.43;0.43;;;;;;;18.96;48.61;101601.97;5183804;28;20068;-86
2022/07/15 02:39:45;;;;;;;0.52;0.52;;;;;;;18.97;49.16;101603.69;5173958;28;20029;-86
2022/07/15 02:42:15;;;;;;;0.40;0.40;;;;;;;18.95;48.34;101602.91;5196138;28;20398;-86
2022/07/15 02:44:46;;;;;;;0.30;0.30;;;;;;;18.92;48.80;101600.34;5184529;28;20028;-86
2022/07/15 02:47:16;;;;;;;0.20;0.20;;;;;;;18.98;49.42;101608.06;5197955;28;20091;-86
2022/07/15 02:49:47;;;;;;;0.30;0.30;;;;;;;18.82;49.97;101611.44;5197347;28;20029;-86
2022/07/15 02:52:20;;;;;;;27.60;1.40;;;;;;;18.82;48.82;101603.47;5179188;28;20029;-86
2022/07/15 02:54:51;;;;;;;0.20;0.20;;;;;;;18.83;48.79;101599.88;5167829;28;20052;-86
2022/07/15 02:57:21;;;;;;;0.30;0.30;;;;;;;18.81;48.77;101607.03;5182558;28;20041;-86
2022/07/15 02:59:52;;;;;;;0.20;0.20;;;;;;;18.78;49.25;101619.63;5179444;28;20041;-86
2022/07/15 03:02:22;;;;;;;0.30;0.30;;;;;;;18.77;49.21;101616.13;5197856;28;20034;-86
2022/07/15 03:04:53;;;;;;;1.33;1.13;;;;;;;18.73;49.25;101625.16;5208958;28;20044;-86
2022/07/15 03:07:24;;;;;;;10.77;1.98;;;;;;;18.74;49.28;101624.22;5208727;28;20044;-86
2022/07/15 03:09:55;;;;;;;0.20;0.20;;;;;;;18.69;49.02;101623.59;5208566;28;20063;-86
2022/07/15 03:12:25;;;;;;;0.65;0.40;;;;;;;18.66;49.23;101624.59;5183617;28;20030;-86
2022/07/15 03:14:58;;;;;;;0.40;0.40;;;;;;;18.63;49.19;101630.06;5177037;28;20029;-86
2022/07/15 03:17:29;;;;;;;0.20;0.20;;;;;;;18.58;49.78;101636.50;5161350;28;20048;-86
2022/07/15 03:20:00;;;;;;;0.30;0.30;;;;;;;18.58;48.87;101636.50;5186221;28;20037;-86
2022/07/15 03:22:30;;;;;;;0.38;0.38;;;;;;;18.56;49.39;101637.44;5180071;28;20104;-86
2022/07/15 03:25:02;;;;;;;11.07;1.17;;;;;;;18.49;48.92;101648.44;5166884;28;20037;-86
2022/07/15 03:27:33;;;;;;;0.20;0.20;;;;;;;18.46;49.20;101644.13;5198140;28;20040;-86
2022/07/15 03:30:10;;;;;;;0.55;0.47;;;;;;;18.46;49.64;101653.88;5177635;28;20225;-86
2022/07/15 03:32:40;;;;;;;0.35;0.35;;;;;;;18.42;50.28;101641.69;5211395;28;20033;-86
2022/07/15 03:35:11;;;;;;;0.40;0.40;;;;;;;18.39;50.78;101645.31;5178127;28;20046;-86
2022/07/15 03:37:42;;;;;;;3.47;1.55;;;;;;;18.35;49.38;101649.91;5167171;28;20124;-86
2022/07/15 03:40:15;;;;;;;1.02;0.95;;;;;;;18.33;50.18;101658.88;5164464;28;20042;-86
2022/07/15 03:42:46;;;;;;;0.30;0.30;;;;;;;18.31;49.09;101656.31;5190461;28;20038;-86
2022/07/15 03:45:20;;;;;;;0.55;0.55;;;;;;;18.30;49.49;101664.34;5163047;28;20036;-85
2022/07/15 03:47:50;;;;;;;0.30;0.30;;;;;;;18.22;49.59;101662.88;5200433;28;20037;-86
2022/07/15 03:50:21;;;;;;;1.35;0.77;;;;;;;18.28;49.65;101676.84;5178720;28;20036;-86
2022/07/15 03:52:54;;;;;;;0.30;0.30;;;;;;;18.24;49.53;101671.66;5165096;28;20037;-86
2022/07/15 03:55:24;;;;;;;0.25;0.25;;;;;;;18.24;49.57;101676.97;5178376;28;20033;-86
2022/07/15 03:57:57;;;;;;;0.30;0.30;;;;;;;18.24;49.32;101676.09;5167682;28;20033;-86
2022/07/15 04:00:28;;;;;;;;;;;;;;;18.20;49.37;101680.69;5179369;28;20033;-86
2022/07/15 04:02:59;;;;;;;0.38;0.38;;;;;;;18.20;49.55;101685.13;5184766;28;20244;-86
2022/07/15 04:05:29;;;;;;;1.05;1.05;;;;;;;18.22;49.79;101693.91;5173143;28;20039;-86
2022/07/15 04:08:03;;;;;;;0.30;0.30;;;;;;;18.21;49.61;101681.53;5177170;28;20022;-86
2022/07/15 04:10:34;;;;;;;1.05;0.68;;;;;;;18.21;49.64;101689.50;5186731;28;20041;-86
2022/07/15 04:13:04;;;;;;;0.45;0.40;;;;;;;18.17;49.70;101694.09;5170197;28;20029;-86
2022/07/15 04:15:34;;;;;;;0.20;0.20;;;;;;;18.28;50.59;101692.78;5198122;28;20041;-86
2022/07/15 04:18:05;;;;;;;0.60;0.60;;;;;;;18.21;49.80;101693.06;5192980;28;20438;-86
2022/07/15 04:20:35;;;;;;;0.75;0.75;;;;;;;18.19;49.76;101694.91;5177450;28;20030;-86
2022/07/15 04:23:06;;;;;;;2.17;0.98;;;;;;;18.18;49.68;101697.63;5195776;28;20022;-86
2022/07/15 04:25:36;;;;;;;0.40;0.40;;;;;;;18.19;49.76;101696.69;5195345;28;20390;-86
2022/07/15 04:28:07;;;;;;;0.43;0.43;;;;;;;18.18;49.93;101700.28;5160688;28;20039;-86
2022/07/15 04:30:37;;;;;;;1.08;1.05;;;;;;;18.15;49.67;101698.59;5162248;28;20129;-86
2022/07/15 04:33:08;;;;;;;1.55;1.45;;;;;;;18.18;50.84;101700.28;5180402;28;20017;-86
2022/07/15 04:35:38;;;;;;;0.30;0.30;;;;;;;18.18;50.57;101709.09;5197724;28;20100;-86
2022/07/15 04:38:09;;;;;;;0.40;0.40;;;;;;;18.16;50.40;101707.47;5180501;28;20061;-86
2022/07/15 04:40:40;;;;;;;0.88;0.85;;;;;;;18.18;50.84;101709.09;5199090;28;20041;-86
2022/07/15 04:43:11;;;;;;;1.92;1.33;;;;;;;18.18;51.24;101714.41;5166195;28;20670;-86
2022/07/15 04:45:42;;;;;;;0.75;0.75;;;;;;;18.17;51.29;101707.38;5191429;28;20042;-86
2022/07/15 04:51:02;;;;;;;0.32;0.32;;;;;;;18.07;51.03;101722.84;5183010;28;20033;-86
2022/07/15 04:53:32;;;;;;;0.60;0.57;;;;;;;18.01;52.20;101714.28;5192648;28;20041;-85
2022/07/15 04:56:03;;;;;;;1.27;0.98;;;;;;;18.02;51.27;101711.53;5171208;28;20468;-85
2022/07/15 04:58:33;;;;;;;0.50;0.50;;;;;;;17.94;52.15;101717.16;5162161;28;20623;-85
2022/07/15 05:01:04;;;;;;;0.88;0.88;;;;;;;17.99;51.44;101721.44;5172984;28;20041;-85
2022/07/15 05:03:35;;;;;;;0.30;0.30;;;;;;;18.00;51.33;101717.84;5163829;28;20115;-84
2022/07/15 05:06:05;;;;;;;0.30;0.30;;;;;;;17.99;51.00;101724.97;5169067;28;20049;-84
2022/07/15 05:08:36;;;;;;;0.43;0.40;;;;;;;18.00;51.24;101716.09;5211111;28;20040;-84
2022/07/15 05:11:06;;;;;;;2.00;1.75;;;;;;;18.03;51.80;101723.91;5183884;28;20025;-84
2022/07/15 05:13:37;;;;;;;0.30;0.30;;;;;;;17.96;51.77;101732.22;5165943;28;20036;-85
2022/07/15 05:16:08;;;;;;;7.68;0.52;;;;;;;18.03;51.76;101721.25;5189472;28;20116;-84
2022/07/15 05:18:40;;;;;;;1.85;1.75;;;;;;;17.98;51.62;101727.66;5196518;28;20068;-84
2022/07/15 05:21:10;;;;;;;3.65;1.15;;;;;;;18.00;51.50;101726.72;5194850;28;20036;-84
2022/07/15 05:23:41;;;;;;;0.32;0.32;;;;;;;18.02;51.12;101718.66;5179970;28;20026;-83
2022/07/15 05:26:11;;;;;;;0.40;0.40;;;;;;;18.04;51.31;101722.13;5197014;28;20099;-85
2022/07/15 05:28:42;;;;;;;0.20;0.20;;;;;;;18.02;51.27;101718.66;5207881;28;20120;-86
2022/07/15 05:31:13;;;;;;;0.47;0.47;;;;;;;18.06;51.26;101725.56;5188405;28;20033;-85
2022/07/15 05:33:43;;;;;;;0.75;0.75;;;;;;;18.05;51.23;101726.50;5190684;28;20057;-84
2022/07/15 05:36:15;;;;;;;3.60;0.77;;;;;;;18.04;51.14;101717.66;5160574;28;20055;-84
2022/07/15 05:38:45;;;;;;;0.32;0.32;;;;;;;18.04;51.07;101724.78;5175535;28;20030;-85
2022/07/15 05:41:16;;;;;;;0.55;0.55;;;;;;;18.14;52.31;101723.44;5177493;28;20548;-84
2022/07/15 05:43:46;;;;;;;0.70;0.70;;;;;;;18.14;52.95;101718.13;5199347;28;20324;-84
2022/07/15 05:46:19;;;;;;;2.50;2.05;;;;;;;18.11;52.78;101725.38;5174460;28;20128;-86
2022/07/15 05:48:49;;;;;;;0.50;0.50;;;;;;;18.10;52.07;101727.16;5171365;28;20037;-85
2022/07/15 05:51:22;;;;;;;;;;;;;;;18.09;51.43;101730.75;5170989;28;20036;-85
2022/07/15 05:53:54;;;;;;;1.73;0.98;;;;;;;18.07;51.79;101722.84;5191498;28;19921;-86
2022/07/15 05:56:25;;;;;;;0.35;0.35;;;;;;;18.06;51.84;101725.56;5171211;28;20507;-86
2022/07/15 05:58:55;;;;;;;0.30;0.30;;;;;;;18.05;51.49;101731.81;5205039;28;20061;-86
2022/07/15 06:01:26;;;;;;;0.73;0.60;;;;;;;18.05;52.00;101729.16;5190173;28;20099;-84
2022/07/15 06:03:57;;;;;;;0.50;0.50;;;;;;;18.04;51.07;101728.28;5212795;28;20034;-86
2022/07/15 06:06:27;;;;;;;7.68;1.05;;;;;;;18.03;51.82;101731.03;5194634;28;20030;-86
2022/07/15 06:08:58;;;;;;;0.25;0.25;;;;;;;18.05;51.51;101729.16;5194379;28;20029;-85
2022/07/15 06:11:28;;;;;;;1.75;0.95;;;;;;;18.01;51.34;101722.25;5189552;28;20073;-85
2022/07/15 06:13:59;;;;;;;0.40;0.40;;;;;;;18.01;51.34;101733.75;5196691;28;20064;-84
2022/07/15 06:16:29;;;;;;;0.50;0.50;;;;;;;17.96;52.93;101734.88;5201900;28;20088;-85
2022/07/15 06:19:00;;;;;;;0.73;0.73;;;;;;;18.01;51.91;101732.88;5195526;28;20026;-85
2022/07/15 06:21:31;;;;;;;1.27;1.27;;;;;;;17.96;51.84;101734.88;5176175;28;20029;-86
2022/07/15 06:24:01;;;;;;;1.20;1.10;;;;;;;17.94;51.73;101738.41;5192199;28;20029;-87
2022/07/15 06:26:32;;;;;;;0.30;0.30;;;;;;;17.93;51.53;101735.81;5191914;28;20044;-87
2022/07/15 06:29:02;;;;;;;0.20;0.20;;;;;;;17.90;51.48;101734.13;5193893;28;20034;-86
2022/07/15 06:31:33;;;;;;;0.25;0.25;;;;;;;17.92;51.36;101739.41;5181901;28;20140;-86
2022/07/15 06:34:04;;;;;;;0.63;0.63;;;;;;;17.93;51.60;101736.69;5185947;28;20280;-86
2022/07/15 06:36:34;;;;;;;0.20;0.20;;;;;;;17.85;52.92;101736.13;5161110;28;20030;-86
2022/07/15 06:39:05;;;;;;;0.22;0.22;;;;;;;17.88;51.70;101728.06;5179411;28;20029;-86
2022/07/15 06:41:35;;;;;;;0.30;0.30;;;;;;;17.93;51.39;101727.88;5192334;28;20068;-85
2022/07/15 06:44:06;;;;;;;0.28;0.28;;;;;;;17.94;51.42;101733.09;5164444;28;20123;-87
2022/07/15 06:46:36;;;;;;;0.20;0.20;;;;;;;17.96;51.63;101730.41;5207607;28;20065;-86
2022/07/15 06:49:06;;;;;;;0.43;0.43;;;;;;;18.00;51.37;101731.13;5188609;28;20064;-86
2022/07/15 06:51:37;;;;;;;1.65;0.35;;;;;;;18.01;51.07;101728.44;5161611;28;20033;-87
2022/07/15 06:54:08;;;;;;;1.38;0.55;;;;;;;18.04;51.38;101735.41;5160844;28;20034;-86
2022/07/15 06:56:39;;;;;;;0.50;0.50;;;;;;;18.04;52.21;101733.59;5164607;28;20384;-87
2022/07/15 06:59:10;;;;;;;0.80;0.80;;;;;;;18.08;51.41;101739.63;5159806;28;20107;-86
2022/07/15 07:01:40;;;;;;;3.20;0.70;;;;;;;18.09;51.15;101738.72;5158701;28;20030;-86
2022/07/15 07:04:11;;;;;;;0.30;0.30;;;;;;;18.08;52.31;101739.63;5182405;28;20749;-85
2022/07/15 07:06:41;;;;;;;1.08;1.05;;;;;;;18.08;51.15;101734.31;5186700;28;20553;-85
2022/07/15 07:09:12;;;;;;;2.45;0.55;;;;;;;18.12;51.09;101738.59;5196200;28;20057;-86
2022/07/15 07:11:45;;;;;;;0.98;0.98;;;;;;;18.13;51.13;101737.66;5193359;28;20041;-85
2022/07/15 07:14:15;;;;;;;0.47;0.47;;;;;;;18.13;51.97;101732.38;5196441;28;20313;-85
2022/07/15 07:16:46;;;;;;;0.30;0.30;;;;;;;18.14;51.57;101733.22;5183989;28;20037;-85
2022/07/15 07:19:17;;;;;;;0.20;0.20;;;;;;;18.21;51.35;101734.66;5185953;28;20541;-85
2022/07/15 07:21:47;;;;;;;0.20;0.20;;;;;;;18.24;51.06;101742.50;5181836;28;20429;-85
2022/07/15 07:24:18;;;;;;;0.55;0.50;;;;;;;18.24;51.13;101738.06;5182930;28;20033;-85
2022/07/15 07:26:51;;;;;;;0.35;0.35;;;;;;;18.32;50.87;101742.16;5198711;28;20037;-85
2022/07/15 07:29:22;;;;;;;0.52;0.52;;;;;;;18.28;51.10;101745.91;5162984;28;20629;-85
2022/07/15 07:31:52;;;;;;;0.20;0.20;;;;;;;18.33;50.88;101749.22;5191348;28;20087;-85
2022/07/15 07:34:23;;;;;;;0.30;0.30;;;;;;;18.38;50.83;101748.09;5176744;28;20125;-85
2022/07/15 07:36:53;;;;;;;0.40;0.40;;;;;;;18.44;50.43;101731.00;5203020;28;20048;-84
2022/07/15 07:39:26;;;;;;;;;;;;;;;18.43;51.32;101725.78;5185291;28;20083;-85
2022/07/15 07:41:57;;;;;;;1.52;0.85;;;;;;;18.50;50.57;101732.53;5162605;28;20418;-84
2022/07/15 07:44:28;;;;;;;6.28;1.38;;;;;;;18.44;51.00;101736.34;5198430;28;20034;-84
2022/07/15 07:46:58;;;;;;;0.45;0.45;;;;;;;18.53;50.58;101735.94;5175189;28;20034;-85
2022/07/15 07:49:28;;;;;;;0.20;0.20;;;;;;;18.62;50.60;101736.44;5176469;28;20249;-84
2022/07/15 07:51:59;;;;;;;0.20;0.20;;;;;;;18.63;50.25;101746.16;5174886;28;20029;-85
2022/07/15 07:54:30;;;;;;;0.28;0.28;;;;;;;18.63;50.50;101738.19;5180293;28;20060;-84
2022/07/15 07:57:04;;;;;;;0.20;0.20;;;;;;;18.64;50.03;101735.44;5204535;28;20114;-85
2022/07/15 07:59:34;;;;;;;0.30;0.30;;;;;;;18.67;49.80;101731.78;5191143;28;20060;-87
2022/07/15 08:02:05;;;;;;;0.20;0.20;;;;;;;18.71;49.92;101733.38;5178622;28;20064;-87
2022/07/15 08:04:35;;;;;;;0.30;0.30;;;;;;;18.74;49.79;101735.03;5183115;28;20029;-87
2022/07/15 08:07:07;;;;;;;4.05;1.33;;;;;;;18.70;49.42;101732.50;5167589;28;20121;-87
2022/07/15 08:09:37;;;;;;;0.60;0.60;;;;;;;18.75;49.61;101734.94;5180096;28;20045;-87
2022/07/15 08:12:08;;;;;;;0.22;0.22;;;;;;;18.82;48.76;101738.19;5173267;28;20149;-87
2022/07/15 08:14:39;;;;;;;0.30;0.30;;;;;;;18.82;49.10;101730.22;5184121;28;20499;-88
2022/07/15 08:17:09;;;;;;;0.40;0.40;;;;;;;18.79;48.52;101728.56;5194156;28;20048;-87
2022/07/15 08:19:40;;;;;;;0.30;0.30;;;;;;;18.79;47.19;101731.22;5172959;28;20030;-87
2022/07/15 08:22:10;;;;;;;0.20;0.20;;;;;;;18.85;47.72;101728.28;5168737;28;20042;-88
2022/07/15 08:24:44;;;;;;;0.30;0.30;;;;;;;18.87;48.03;101733.53;5175942;28;20037;-91
2022/07/15 08:27:14;;;;;;;0.22;0.22;;;;;;;18.90;48.17;101733.41;5174428;28;20046;-88
2022/07/15 08:29:46;;;;;;;0.20;0.20;;;;;;;18.97;48.20;101733.97;5189958;28;20026;-90
2022/07/15 08:32:16;;;;;;;0.57;0.57;;;;;;;19.02;48.67;101738.16;5152370;28;20040;-88
2022/07/15 08:34:50;;;;;;;1.75;0.95;;;;;;;19.01;48.31;101735.59;5199781;28;20037;-90
2022/07/15 08:37:20;;;;;;;0.30;0.30;;;;;;;18.96;48.28;101738.44;5181238;28;20029;-87
2022/07/15 08:39:51;;;;;;;1.50;0.45;;;;;;;19.00;47.92;101731.19;5192756;28;20041;-88
2022/07/15 08:42:21;;;;;;;0.20;0.20;;;;;;;19.03;48.09;101739.88;5189354;28;20018;-90
2022/07/15 08:44:55;;;;;;;;;;;;;;;19.06;47.97;101738.03;5190817;28;20069;-91
2022/07/15 08:47:26;;;;;;;0.20;0.20;;;;;;;19.12;47.70;101733.28;5198961;28;19944;-87
2022/07/15 08:49:58;;;;;;;0.20;0.20;;;;;;;19.13;48.07;101734.16;5201621;28;20281;-89
2022/07/15 08:52:32;;;;;;;0.20;0.20;;;;;;;19.16;48.13;101740.19;5180370;28;20013;-88
2022/07/15 08:55:04;;;;;;;0.40;0.40;;;;;;;19.11;47.61;101742.19;5199524;28;20041;-84
2022/07/15 08:57:34;;;;;;;2.45;0.73;;;;;;;19.13;47.60;101740.31;5188008;28;20045;-87
2022/07/15 09:00:10;;;;;;;0.85;0.85;;;;;;;19.21;47.42;101739.97;5215636;28;20037;-91
2022/07/15 09:02:40;;;;;;;0.20;0.20;;;;;;;19.24;47.29;101737.16;5190959;28;20033;-90
2022/07/15 09:05:30;;;;;;;0.30;0.30;;;;;;;19.32;46.00;101737.66;5186298;28;20041;-90
2022/07/15 09:08:07;;;;;;;0.20;0.20;;;;;;;19.26;46.22;101737.09;5190749;28;20100;-87
2022/07/15 09:10:50;;;;;;;0.57;0.57;;;;;;;19.19;45.69;101739.16;5185906;28;20033;-87
2022/07/15 09:13:40;;;;;;;0.20;0.20;;;;;;;19.12;45.23;101733.28;5195074;28;20142;-87
2022/07/15 09:16:19;;;;;;;0.20;0.20;;;;;;;19.22;45.30;101732.81;5184744;28;20041;-87
2022/07/15 09:18:53;;;;;;;0.20;0.20;;;;;;;19.31;45.94;101732.41;5201292;28;20561;-92
2022/07/15 09:21:26;;;;;;;0.20;0.20;;;;;;;19.33;46.44;101730.53;5178426;28;20041;-88
2022/07/15 09:24:17;;;;;;;0.23;0.23;;;;;;;19.42;46.12;101732.75;5163612;28;20041;-87
2022/07/15 09:26:47;;;;;;;0.20;0.20;;;;;;;19.49;46.12;101726.19;5177685;28;20360;-88
2022/07/15 09:38:07;;;;;;;0.20;0.20;;;;;;;19.76;46.04;101727.56;5181616;28;20053;-88
2022/07/15 09:40:48;;;;;;;0.20;0.20;;;;;;;19.52;42.77;101719.00;5189466;28;20026;-88
2022/07/15 09:43:19;;;;;;;0.38;0.38;;;;;;;19.55;44.03;101716.16;5188461;28;20069;-87
2022/07/15 09:46:06;;;;;;;0.20;0.20;;;;;;;19.74;43.97;101729.47;5170389;28;20037;-87
2022/07/15 09:48:42;;;;;;;0.47;0.47;;;;;;;19.80;43.68;101716.69;5191763;28;20220;-87
2022/07/15 09:51:14;;;;;;;1.35;1.25;;;;;;;19.76;44.64;101722.22;5158704;28;20034;-87
2022/07/15 09:53:45;;;;;;;0.25;0.25;;;;;;;19.85;43.87;101721.81;5175817;28;20037;-87
2022/07/15 09:56:26;;;;;;;0.20;0.20;;;;;;;19.85;43.71;101727.13;5188556;28;20029;-86
2022/07/15 09:58:57;;;;;;;0.28;0.28;;;;;;;19.90;43.28;101725.13;5189412;28;20033;-87
2022/07/15 10:01:27;;;;;;;4.57;1.20;;;;;;;19.99;43.90;101729.09;5162226;28;20055;-87
2022/07/15 10:03:59;;;;;;;0.20;0.20;;;;;;;20.07;43.79;101729.56;5172156;28;20030;-87
2022/07/15 10:06:32;;;;;;;5.57;1.38;;;;;;;20.18;43.56;101725.50;5175471;28;20034;-87
2022/07/15 10:09:03;;;;;;;;;;;;;;;20.17;43.49;101721.09;5190491;28;20041;-87
2022/07/15 10:11:38;;;;;;;2.40;1.58;;;;;;;20.19;43.00;101719.22;5174943;28;19953;-86
2022/07/15 10:14:30;;;;;;;0.30;0.30;;;;;;;20.22;42.27;101719.94;5199242;28;20029;-87
2022/07/15 10:17:13;;;;;;;0.20;0.20;;;;;;;20.32;42.83;101719.47;5187602;28;20030;-88
2022/07/15 10:20:27;;;;;;;2.65;0.90;;;;;;;20.28;39.45;101721.44;5186561;28;20751;-86
2022/07/15 10:23:12;;;;;;;0.30;0.30;;;;;;;20.28;41.69;101716.94;5206971;28;20053;-87
2022/07/15 10:25:51;;;;;;;4.15;0.55;;;;;;;20.41;41.61;101711.81;5178064;28;20459;-87
2022/07/15 10:28:36;;;;;;;0.20;0.20;;;;;;;20.39;41.21;101716.38;5180298;28;20045;-87
2022/07/15 10:31:13;;;;;;;0.43;0.43;;;;;;;20.45;39.60;101715.19;5178445;28;20037;-87
2022/07/15 10:34:02;;;;;;;0.30;0.30;;;;;;;20.50;40.86;101705.13;5175435;28;20397;-87
2022/07/15 10:36:45;;;;;;;0.20;0.20;;;;;;;20.55;40.97;101700.44;5178419;28;20033;-87
2022/07/15 10:39:26;;;;;;;0.20;0.20;;;;;;;20.56;41.29;101704.81;5179563;28;20025;-87
2022/07/15 10:41:59;;;;;;;0.20;0.20;;;;;;;20.65;41.34;101708.78;5212902;28;20033;-89
2022/07/15 10:44:32;;;;;;;0.20;0.20;;;;;;;20.76;40.19;101708.22;5172074;28;20052;-92
2022/07/15 10:47:12;;;;;;;0.55;0.40;;;;;;;20.80;39.83;101711.59;5169008;28;20029;-92
2022/07/15 10:49:48;;;;;;;0.40;0.40;;;;;;;20.79;40.27;101709.88;5168682;28;20042;-91
2022/07/15 10:52:23;;;;;;;0.30;0.30;;;;;;;20.88;40.16;101706.69;5169615;28;20044;-92
2022/07/15 10:54:54;;;;;;;0.52;0.52;;;;;;;20.90;40.66;101704.81;5181136;28;20053;-91
2022/07/15 10:57:40;;;;;;;0.43;0.43;;;;;;;20.80;40.16;101696.47;5184504;28;20034;-91
2022/07/15 11:00:29;;;;;;;0.25;0.25;;;;;;;20.85;40.46;101697.06;5169716;28;20040;-90
2022/07/15 11:03:12;;;;;;;0.32;0.32;;;;;;;20.76;40.98;101697.56;5170527;28;20076;-88
2022/07/15 11:05:48;;;;;;;0.20;0.20;;;;;;;20.82;40.62;101691.03;5179967;28;20148;-89
2022/07/15 11:08:31;;;;;;;0.65;0.65;;;;;;;20.80;40.87;101685.81;5168698;28;20033;-89
2022/07/15 11:11:14;;;;;;;0.90;0.90;;;;;;;20.86;41.18;101689.94;5169901;28;20092;-89
2022/07/15 11:13:47;;;;;;;1.10;1.10;;;;;;;20.83;40.25;101688.28;5170147;28;20501;-90
2022/07/15 11:16:20;;;;;;;0.40;0.40;;;;;;;20.92;41.47;101676.25;5168683;28;20065;-89
2022/07/15 11:18:52;;;;;;;;;;;;;;;20.85;40.88;101678.38;5172852;28;20457;-88
2022/07/15 11:21:23;;;;;;;0.20;0.20;;;;;;;20.87;41.29;101668.50;5164447;28;20371;-89
2022/07/15 11:23:54;;;;;;;0.20;0.20;;;;;;;20.96;41.10;101666.28;5165915;28;20037;-86
2022/07/15 11:26:45;;;;;;;0.30;0.30;;;;;;;20.99;40.72;101666.97;5204676;28;20052;-87
2022/07/15 11:29:15;;;;;;;0.20;0.20;;;;;;;21.08;39.94;101662.91;5179764;28;20041;-86
2022/07/15 11:31:48;;;;;;;0.28;0.28;;;;;;;21.09;40.39;101667.28;5199815;28;20044;-86
2022/07/15 11:34:20;;;;;;;0.88;0.80;;;;;;;21.23;40.07;101664.72;5183657;28;20037;-87
2022/07/15 11:36:58;;;;;;;0.30;0.30;;;;;;;21.18;40.29;101665.94;5181284;28;20124;-86
2022/07/15 11:39:29;;;;;;;0.68;0.68;;;;;;;21.12;40.45;101661.78;5180016;28;20022;-86
2022/07/15 11:44:50;;;;;;;3.53;0.52;;;;;;;21.18;40.50;101650.75;5192051;28;20076;-87
2022/07/15 11:47:22;;;;;;;0.25;0.25;;;;;;;21.24;40.64;101644.22;5161949;28;20025;-87
2022/07/15 11:49:59;;;;;;;0.20;0.20;;;;;;;21.30;39.15;101645.69;5198504;28;20562;-86
2022/07/15 11:52:30;;;;;;;0.30;0.30;;;;;;;21.39;37.51;101642.47;5163284;28;20046;-87
2022/07/15 11:55:05;;;;;;;0.20;0.20;;;;;;;21.40;39.89;101644.19;5181472;28;20471;-87
2022/07/15 11:57:36;;;;;;;0.55;0.55;;;;;;;21.65;38.34;101646.31;5194059;28;20037;-86
2022/07/15 12:00:07;;;;;;;1.27;0.73;;;;;;;21.74;38.78;101646.72;5176993;28;20108;-87
2022/07/15 12:02:38;;;;;;;0.30;0.30;;;;;;;21.67;36.98;101640.88;5197087;28;20443;-86
2022/07/15 12:05:09;;;;;;;5.75;1.42;;;;;;;21.70;38.27;101633.53;5159139;28;20057;-87